createdAt,value
2019-05-13T00:01:43.506Z,1.90
2019-05-13T00:04:14.096Z,2.13
2019-05-13T00:06:51.306Z,2.60
2019-05-13T00:09:14.120Z,2.40
2019-05-13T00:11:43.742Z,2.03
2019-05-13T00:14:13.380Z,2.30
2019-05-13T00:16:44.706Z,2.20
2019-05-13T00:19:14.268Z,2.07
2019-05-13T00:21:44.468Z,2.40
2019-05-13T00:24:13.830Z,2.47
2019-05-13T00:26:44.498Z,2.10
2019-05-13T00:29:14.188Z,2.00
2019-05-13T00:31:47.915Z,2.33
2019-05-13T00:34:16.390Z,2.50
2019-05-13T00:36:44.914Z,2.10
2019-05-13T00:39:15.362Z,2.73
2019-05-13T00:41:44.249Z,1.93
2019-05-13T00:44:14.239Z,2.20
2019-05-13T00:46:44.214Z,2.27
2019-05-13T00:49:13.407Z,2.53
2019-05-13T00:51:44.501Z,2.33
2019-05-13T00:54:13.273Z,2.27
2019-05-13T00:56:43.593Z,2.03
2019-05-13T00:59:14.160Z,2.50
2019-05-13T01:01:44.107Z,2.43
2019-05-13T01:04:14.311Z,2.67
2019-05-13T01:06:43.641Z,2.33
2019-05-13T01:09:14.398Z,2.90
2019-05-13T01:11:43.757Z,3.20
2019-05-13T01:14:14.392Z,2.83
2019-05-13T01:16:44.390Z,3.00
2019-05-13T01:19:14.370Z,2.80
2019-05-13T01:21:43.532Z,2.50
2019-05-13T01:24:14.496Z,3.00
2019-05-13T01:26:43.791Z,2.60
2019-05-13T01:29:13.475Z,3.00
2019-05-13T01:31:43.436Z,3.20
2019-05-13T01:34:14.271Z,3.00
2019-05-13T01:36:44.673Z,2.73
2019-05-13T01:39:13.843Z,2.90
2019-05-13T01:41:43.856Z,2.97
2019-05-13T01:44:13.972Z,2.93
2019-05-13T01:46:43.746Z,2.93
2019-05-13T01:49:13.685Z,3.00
2019-05-13T01:51:50.079Z,3.70
2019-05-13T01:54:24.466Z,3.33
2019-05-13T01:56:53.548Z,3.13
2019-05-13T01:59:23.912Z,3.83
2019-05-13T02:01:54.100Z,3.03
2019-05-13T02:04:24.426Z,3.20
2019-05-13T02:06:54.327Z,3.03
2019-05-13T02:09:24.418Z,3.00
2019-05-13T02:11:53.926Z,3.20
2019-05-13T02:14:23.710Z,2.80
2019-05-13T02:16:53.547Z,3.20
2019-05-13T02:19:24.315Z,3.20
2019-05-13T02:21:54.325Z,2.80
2019-05-13T02:24:23.659Z,3.13
2019-05-13T02:26:54.304Z,3.40
2019-05-13T02:29:24.537Z,3.33
2019-05-13T02:31:56.118Z,3.37
2019-05-13T02:34:23.422Z,2.90
2019-05-13T02:36:52.802Z,3.20
2019-05-13T02:39:22.266Z,3.20
2019-05-13T02:41:52.609Z,3.43
2019-05-13T02:44:22.549Z,3.20
2019-05-13T02:46:52.494Z,3.13
2019-05-13T02:49:23.192Z,3.60
2019-05-13T02:51:54.570Z,3.10
2019-05-13T02:54:26.766Z,3.05
2019-05-13T02:56:55.297Z,3.50
2019-05-13T02:59:23.788Z,3.43
2019-05-13T03:01:53.280Z,3.47
2019-05-13T03:04:23.404Z,3.53
2019-05-13T03:06:52.532Z,3.50
2019-05-13T03:09:22.990Z,3.22
2019-05-13T03:11:53.610Z,3.43
2019-05-13T03:14:23.872Z,3.30
2019-05-13T03:16:53.313Z,3.47
2019-05-13T03:19:22.588Z,3.25
2019-05-13T03:21:52.434Z,3.73
2019-05-13T03:24:23.072Z,3.50
2019-05-13T03:26:53.295Z,3.80
2019-05-13T03:29:22.397Z,3.30
2019-05-13T03:31:55.711Z,4.23
2019-05-13T03:34:26.361Z,4.20
2019-05-13T03:36:57.211Z,3.77
2019-05-13T03:39:23.124Z,3.87
2019-05-13T03:41:53.831Z,3.90
2019-05-13T03:44:23.976Z,3.77
2019-05-13T03:46:54.613Z,4.27
2019-05-13T03:49:26.188Z,8.20
2019-05-13T03:51:55.303Z,7.33
2019-05-13T03:54:23.846Z,9.00
2019-05-13T03:56:53.196Z,11.53
2019-05-13T03:59:22.651Z,9.13
2019-05-13T04:01:52.645Z,5.70
2019-05-13T04:04:23.448Z,4.77
2019-05-13T04:06:53.002Z,4.47
2019-05-13T04:09:30.670Z,3.67
2019-05-13T04:11:52.740Z,4.20
2019-05-13T04:14:22.965Z,4.23
2019-05-13T04:16:53.401Z,3.73
2019-05-13T04:19:23.446Z,3.93
2019-05-13T04:21:53.059Z,3.70
2019-05-13T04:24:22.907Z,3.77
2019-05-13T04:26:53.363Z,4.27
2019-05-13T04:29:23.476Z,4.13
2019-05-13T04:31:53.324Z,4.30
2019-05-13T04:34:23.150Z,4.30
2019-05-13T04:36:52.863Z,4.77
2019-05-13T04:39:39.663Z,4.12
2019-05-13T04:41:52.911Z,4.20
2019-05-13T04:44:23.974Z,4.50
2019-05-13T04:46:52.382Z,4.33
2019-05-13T04:49:23.229Z,4.40
2019-05-13T04:51:52.426Z,4.27
2019-05-13T04:54:22.769Z,4.50
2019-05-13T04:56:52.736Z,4.60
2019-05-13T04:59:22.797Z,3.58
2019-05-13T05:02:13.484Z,3.13
2019-05-13T05:04:54.277Z,3.30
2019-05-13T05:07:34.912Z,3.23
2019-05-13T05:10:33.773Z,3.10
2019-05-13T05:13:22.118Z,3.10
2019-05-13T05:16:22.832Z,2.90
2019-05-13T05:19:27.473Z,3.40
2019-05-13T05:22:18.691Z,3.50
2019-05-13T05:25:05.382Z,3.10
2019-05-13T05:27:42.810Z,3.47
2019-05-13T05:30:21.694Z,3.00
2019-05-13T05:33:07.678Z,3.30
2019-05-13T05:35:57.430Z,3.97
2019-05-13T05:38:54.325Z,3.97
2019-05-13T05:41:25.032Z,6.43
2019-05-13T05:43:55.520Z,4.03
2019-05-13T05:46:24.912Z,3.67
2019-05-13T05:48:55.308Z,3.60
2019-05-13T05:51:25.768Z,2.80
2019-05-13T05:53:57.583Z,3.20
2019-05-13T05:56:29.238Z,2.93
2019-05-13T05:59:02.555Z,2.70
2019-05-13T06:01:32.516Z,2.80
2019-05-13T06:04:01.527Z,2.45
2019-05-13T06:06:32.903Z,2.47
2019-05-13T06:09:01.899Z,2.83
2019-05-13T06:11:32.793Z,2.83
2019-05-13T06:14:02.384Z,3.33
2019-05-13T06:16:32.045Z,2.40
2019-05-13T06:19:01.529Z,2.47
2019-05-13T06:21:32.158Z,2.67
2019-05-13T06:24:02.763Z,2.47
2019-05-13T06:26:31.518Z,2.10
2019-05-13T06:29:02.549Z,2.95
2019-05-13T06:31:32.348Z,2.12
2019-05-13T06:34:02.032Z,2.37
2019-05-13T06:36:31.769Z,2.10
2019-05-13T06:39:02.239Z,1.90
2019-05-13T06:41:32.299Z,2.33
2019-05-13T06:44:02.157Z,2.52
2019-05-13T06:46:32.353Z,2.12
2019-05-13T06:49:02.900Z,2.10
2019-05-13T06:51:31.470Z,2.12
2019-05-13T06:54:02.373Z,1.92
2019-05-13T06:56:32.280Z,1.95
2019-05-13T06:59:01.564Z,2.33
2019-05-13T07:01:32.266Z,2.22
2019-05-13T07:04:02.401Z,1.82
2019-05-13T07:06:32.360Z,1.90
2019-05-13T07:09:01.524Z,2.42
2019-05-13T07:11:31.417Z,2.17
2019-05-13T07:14:02.460Z,2.00
2019-05-13T07:16:31.719Z,2.35
2019-05-13T07:19:02.618Z,1.85
2019-05-13T07:21:32.343Z,2.30
2019-05-13T07:24:02.222Z,2.33
2019-05-13T07:26:31.595Z,2.17
2019-05-13T07:29:20.299Z,2.17
2019-05-13T07:31:52.057Z,1.60
2019-05-13T07:34:24.127Z,2.20
2019-05-13T07:36:51.274Z,1.77
2019-05-13T07:39:22.325Z,2.05
2019-05-13T07:41:52.061Z,2.17
2019-05-13T07:44:22.347Z,2.10
2019-05-13T07:46:52.335Z,2.10
2019-05-13T07:49:22.541Z,2.72
2019-05-13T07:51:52.119Z,2.37
2019-05-13T07:54:22.146Z,2.20
2019-05-13T07:56:52.334Z,1.87
2019-05-13T07:59:21.255Z,1.90
2019-05-13T08:01:52.158Z,2.35
2019-05-13T08:04:23.689Z,2.10
2019-05-13T08:06:52.407Z,1.82
2019-05-13T08:09:21.623Z,1.47
2019-05-13T08:12:02.340Z,1.72
2019-05-13T08:14:21.799Z,1.60
2019-05-13T08:16:51.796Z,2.08
2019-05-13T08:19:21.816Z,1.70
2019-05-13T08:21:51.366Z,1.92
2019-05-13T08:24:22.696Z,1.75
2019-05-13T08:26:53.066Z,2.12
2019-05-13T08:29:21.616Z,1.65
2019-05-13T08:31:51.801Z,1.80
2019-05-13T08:34:25.305Z,1.45
2019-05-13T08:37:03.424Z,1.40
2019-05-13T08:39:38.638Z,1.55
2019-05-13T08:42:15.644Z,1.55
2019-05-13T08:44:37.738Z,1.60
2019-05-13T08:47:12.053Z,0.90
2019-05-13T08:49:41.447Z,1.30
2019-05-13T08:52:12.078Z,1.65
2019-05-13T08:54:41.761Z,1.07
2019-05-13T08:57:11.787Z,1.10
2019-05-13T08:59:42.177Z,0.85
2019-05-13T09:02:14.153Z,0.90
2019-05-13T09:04:42.674Z,0.72
2019-05-13T09:07:12.174Z,1.10
2019-05-13T09:09:41.982Z,1.10
2019-05-13T09:12:11.616Z,1.10
2019-05-13T09:14:46.329Z,1.42
2019-05-13T09:17:15.913Z,1.27
2019-05-13T09:19:44.443Z,1.10
2019-05-13T09:22:12.965Z,1.65
2019-05-13T09:24:42.474Z,2.00
2019-05-13T09:27:12.164Z,1.40
2019-05-13T09:29:42.755Z,1.30
2019-05-13T09:32:12.107Z,1.10
2019-05-13T09:34:42.245Z,1.60
2019-05-13T09:37:11.865Z,1.47
2019-05-13T09:39:41.554Z,1.20
2019-05-13T09:42:12.698Z,1.15
2019-05-13T09:44:41.970Z,1.00
2019-05-13T09:47:12.412Z,1.37
2019-05-13T09:49:42.031Z,1.30
2019-05-13T09:52:12.027Z,1.40
2019-05-13T09:54:42.479Z,1.80
2019-05-13T09:57:12.132Z,1.53
2019-05-13T09:59:42.189Z,1.02
2019-05-13T10:02:12.490Z,1.45
2019-05-13T10:04:43.609Z,1.15
2019-05-13T10:07:12.455Z,0.87
2019-05-13T10:09:42.895Z,1.05
2019-05-13T10:12:12.374Z,1.02
2019-05-13T10:14:41.870Z,1.10
2019-05-13T10:17:12.768Z,1.17
2019-05-13T10:19:42.067Z,1.27
2019-05-13T10:22:12.032Z,1.22
2019-05-13T10:24:42.226Z,1.02
2019-05-13T10:27:12.687Z,1.07
2019-05-13T10:29:42.495Z,0.80
2019-05-13T10:32:11.538Z,0.88
2019-05-13T10:34:42.573Z,1.30
2019-05-13T10:37:11.563Z,1.10
2019-05-13T10:39:40.415Z,1.55
2019-05-13T10:42:11.816Z,1.00
2019-05-13T10:44:39.080Z,0.90
2019-05-13T10:47:07.650Z,1.00
2019-05-13T10:49:36.187Z,0.80
2019-05-13T10:52:04.798Z,1.32
2019-05-13T10:54:33.278Z,0.90
2019-05-13T10:57:04.056Z,1.10
2019-05-13T10:59:32.458Z,1.30
2019-05-13T11:02:02.174Z,1.42
2019-05-13T11:04:32.692Z,1.30
2019-05-13T11:07:03.046Z,1.35
2019-05-13T11:09:32.679Z,1.00
2019-05-13T11:12:02.180Z,1.22
2019-05-13T11:14:32.379Z,1.10
2019-05-13T11:17:01.765Z,1.40
2019-05-13T11:19:36.111Z,1.40
2019-05-13T11:22:02.741Z,1.47
2019-05-13T11:24:32.418Z,1.42
2019-05-13T11:27:02.800Z,1.60
2019-05-13T11:29:32.540Z,1.02
2019-05-13T11:32:02.741Z,1.20
2019-05-13T11:34:32.925Z,1.27
2019-05-13T11:37:03.614Z,1.52
2019-05-13T11:39:32.751Z,1.10
2019-05-13T11:42:02.391Z,1.20
2019-05-13T11:44:32.319Z,1.37
2019-05-13T11:47:02.351Z,1.70
2019-05-13T11:49:31.732Z,1.57
2019-05-13T11:52:02.783Z,1.60
2019-05-13T11:54:30.829Z,1.95
2019-05-13T11:57:04.043Z,1.67
2019-05-13T11:59:32.679Z,1.65
2019-05-13T12:02:04.626Z,1.60
2019-05-13T12:04:34.359Z,1.60
2019-05-13T12:07:03.605Z,1.70
2019-05-13T12:09:32.022Z,1.75
2019-05-13T12:12:03.195Z,1.75
2019-05-13T12:14:44.175Z,1.77
2019-05-13T12:17:02.306Z,1.80
2019-05-13T12:19:32.011Z,1.70
2019-05-13T12:22:02.744Z,1.57
2019-05-13T12:24:30.724Z,1.40
2019-05-13T12:26:59.289Z,1.67
2019-05-13T12:29:27.813Z,1.22
2019-05-13T12:31:56.781Z,1.75
2019-05-13T12:34:25.344Z,1.30
2019-05-13T12:36:53.841Z,1.98
2019-05-13T12:39:23.897Z,1.70
2019-05-13T12:41:53.904Z,1.70
2019-05-13T12:44:23.288Z,1.97
2019-05-13T12:46:54.210Z,1.30
2019-05-13T12:49:22.612Z,1.50
2019-05-13T12:51:51.665Z,1.60
2019-05-13T12:54:23.441Z,1.80
2019-05-13T12:56:56.514Z,1.60
2019-05-13T12:59:28.223Z,1.55
2019-05-13T13:01:58.462Z,1.72
2019-05-13T13:04:33.635Z,1.98
2019-05-13T13:07:01.431Z,1.60
2019-05-13T13:09:32.579Z,1.47
2019-05-13T13:12:00.362Z,1.60
2019-05-13T13:14:36.336Z,1.67
2019-05-13T13:17:03.450Z,1.72
2019-05-13T13:19:41.190Z,2.15
2019-05-13T13:22:18.417Z,1.70
2019-05-13T13:24:57.301Z,1.50
2019-05-13T13:30:02.838Z,1.50
2019-05-13T13:32:25.287Z,1.50
2019-05-13T13:34:55.049Z,1.42
2019-05-13T13:37:24.112Z,1.62
2019-05-13T13:39:55.223Z,1.65
2019-05-13T13:42:22.938Z,1.52
2019-05-13T13:44:53.712Z,2.40
2019-05-13T13:47:24.238Z,2.05
2019-05-13T13:49:53.150Z,1.87
2019-05-13T13:52:22.797Z,2.12
2019-05-13T13:55:01.990Z,2.08
2019-05-13T13:57:25.628Z,2.02
2019-05-13T14:02:36.540Z,2.10
2019-05-13T14:05:05.984Z,2.37
2019-05-13T14:07:09.443Z,2.20
2019-05-13T14:07:13.615Z,1.82
2019-05-13T14:07:42.597Z,2.35
2019-05-13T14:10:11.916Z,2.00
2019-05-13T14:12:41.711Z,2.47
2019-05-13T14:15:11.259Z,2.25
2019-05-13T14:17:41.533Z,2.67
2019-05-13T14:20:10.818Z,2.40
2019-05-13T14:22:41.766Z,2.25
2019-05-13T14:25:11.545Z,2.27
2019-05-13T14:27:42.027Z,2.27
2019-05-13T14:30:11.858Z,2.40
2019-05-13T14:32:42.418Z,2.12
2019-05-13T14:35:12.288Z,2.47
2019-05-13T14:37:40.956Z,2.27
2019-05-13T14:40:12.121Z,2.40
2019-05-13T14:42:42.647Z,2.20
2019-05-13T14:45:12.328Z,2.25
2019-05-13T14:47:41.045Z,2.27
2019-05-13T14:50:12.186Z,2.20
2019-05-13T14:52:41.621Z,1.90
2019-05-13T14:55:11.565Z,2.65
2019-05-13T14:57:47.858Z,2.10
2019-05-13T15:00:25.067Z,1.90
2019-05-13T15:02:57.671Z,2.00
2019-05-13T15:05:44.603Z,1.93
2019-05-13T15:08:14.778Z,2.20
2019-05-13T15:10:43.645Z,1.75
2019-05-13T15:13:16.603Z,1.70
2019-05-13T15:15:48.267Z,1.95
2019-05-13T15:18:16.906Z,1.67
2019-05-13T15:20:47.112Z,1.70
2019-05-13T15:23:22.190Z,1.85
2019-05-13T15:25:53.617Z,2.10
2019-05-13T15:28:31.600Z,2.10
2019-05-13T15:31:00.326Z,2.00
2019-05-13T15:33:36.012Z,2.50
2019-05-13T15:36:13.697Z,1.45
2019-05-13T15:38:42.495Z,3.33
2019-05-13T15:41:17.604Z,2.15
2019-05-13T15:43:51.865Z,2.20
2019-05-13T15:46:28.162Z,2.07
2019-05-13T15:48:58.578Z,2.60
2019-05-13T15:51:31.458Z,2.45
2019-05-13T15:54:04.072Z,2.80
2019-05-13T15:56:32.927Z,2.65
2019-05-13T15:59:01.956Z,2.40
2019-05-13T16:01:30.695Z,2.70
2019-05-13T16:04:02.080Z,2.27
2019-05-13T16:06:32.035Z,2.15
2019-05-13T16:08:59.943Z,3.00
2019-05-13T16:11:32.286Z,2.60
2019-05-13T16:14:02.109Z,3.10
2019-05-13T16:16:32.281Z,2.58
2019-05-13T16:19:01.374Z,2.15
2019-05-13T16:21:31.977Z,2.17
2019-05-13T16:24:02.564Z,2.50
2019-05-13T16:26:31.880Z,2.42
2019-05-13T16:29:02.118Z,2.25
2019-05-13T16:31:31.821Z,2.15
2019-05-13T16:34:01.601Z,1.75
2019-05-13T16:36:31.318Z,2.40
2019-05-13T16:39:02.158Z,2.12
2019-05-13T16:41:31.599Z,2.45
2019-05-13T16:44:00.351Z,2.00
2019-05-13T16:46:28.845Z,1.77
2019-05-13T16:48:57.394Z,1.95
2019-05-13T16:51:25.940Z,2.05
2019-05-13T16:53:54.500Z,2.45
2019-05-13T16:56:29.805Z,1.80
2019-05-13T16:59:01.618Z,1.85
2019-05-13T17:01:25.597Z,1.67
2019-05-13T17:03:54.307Z,2.15
2019-05-13T17:06:22.951Z,2.12
2019-05-13T17:08:52.947Z,1.95
2019-05-13T17:11:26.512Z,1.90
2019-05-13T17:13:55.006Z,2.02
2019-05-13T17:16:23.491Z,1.80
2019-05-13T17:18:55.453Z,2.22
2019-05-13T17:21:31.682Z,1.85
2019-05-13T17:24:07.292Z,2.17
2019-05-13T17:26:35.856Z,1.50
2019-05-13T17:29:04.887Z,2.20
2019-05-13T17:31:33.389Z,2.00
2019-05-13T17:34:01.873Z,1.60
2019-05-13T17:36:32.429Z,1.80
2019-05-13T17:39:01.852Z,1.87
2019-05-13T17:41:32.092Z,1.90
2019-05-13T17:44:02.470Z,2.10
2019-05-13T17:46:32.612Z,1.42
2019-05-13T17:49:01.578Z,2.10
2019-05-13T17:51:30.082Z,1.82
2019-05-13T17:54:01.248Z,1.57
2019-05-13T17:56:32.231Z,1.67
2019-05-13T17:58:59.426Z,1.72
2019-05-13T18:01:27.931Z,1.98
2019-05-13T18:03:56.401Z,2.07
2019-05-13T18:06:24.877Z,2.27
2019-05-13T18:08:54.603Z,2.45
2019-05-13T18:11:23.745Z,1.82
2019-05-13T18:13:52.374Z,1.15
2019-05-13T18:16:21.748Z,2.03
2019-05-13T18:18:52.146Z,1.97
2019-05-13T18:21:20.934Z,2.10
2019-05-13T18:23:51.979Z,1.67
2019-05-13T18:26:21.474Z,1.87
2019-05-13T18:28:51.507Z,1.50
2019-05-13T18:31:20.087Z,1.77
2019-05-13T18:33:52.523Z,2.10
2019-05-13T18:36:22.257Z,1.35
2019-05-13T18:38:51.050Z,1.53
2019-05-13T18:41:21.369Z,1.77
2019-05-13T18:43:52.828Z,1.90
2019-05-13T18:46:21.708Z,1.90
2019-05-13T18:48:58.672Z,2.10
2019-05-13T18:51:25.091Z,2.00
2019-05-13T18:53:53.660Z,1.87
2019-05-13T18:56:22.336Z,2.27
2019-05-13T18:58:50.880Z,1.70
2019-05-13T19:01:21.441Z,1.70
2019-05-13T19:03:49.575Z,2.40
2019-05-13T19:06:18.108Z,2.10
2019-05-13T19:08:46.571Z,2.47
2019-05-13T19:11:15.186Z,2.00
2019-05-13T19:13:43.673Z,2.03
2019-05-13T19:16:12.235Z,2.00
2019-05-13T19:18:42.330Z,1.87
2019-05-13T19:21:11.050Z,1.90
2019-05-13T19:23:41.781Z,1.90
2019-05-13T19:26:11.248Z,2.10
2019-05-13T19:28:40.088Z,1.53
2019-05-13T19:31:08.629Z,1.40
2019-05-13T19:33:37.094Z,1.77
2019-05-13T19:36:05.581Z,1.83
2019-05-13T19:38:34.060Z,1.90
2019-05-13T19:41:02.514Z,1.63
2019-05-13T19:43:31.552Z,1.77
2019-05-13T19:46:01.524Z,1.70
2019-05-13T19:48:32.553Z,1.93
2019-05-13T19:51:03.868Z,2.33
2019-05-13T19:53:34.626Z,2.53
2019-05-13T19:56:03.108Z,2.63
2019-05-13T19:58:32.429Z,2.90
2019-05-13T20:01:01.376Z,2.80
2019-05-13T20:03:31.777Z,2.13
2019-05-13T20:06:04.959Z,1.80
2019-05-13T20:08:33.468Z,2.60
2019-05-13T20:11:02.353Z,2.30
2019-05-13T20:13:30.859Z,2.90
2019-05-13T20:16:01.338Z,2.27
2019-05-13T20:18:31.990Z,2.67
2019-05-13T20:21:01.245Z,3.37
2019-05-13T20:23:32.030Z,2.97
2019-05-13T20:26:01.075Z,3.30
2019-05-13T20:28:31.592Z,4.43
2019-05-13T20:31:01.783Z,2.47
2019-05-13T20:33:31.969Z,2.37
2019-05-13T20:36:01.608Z,1.70
2019-05-13T20:38:31.681Z,2.17
2019-05-13T20:41:01.304Z,1.70
2019-05-13T20:43:32.854Z,1.80
2019-05-13T20:46:02.081Z,1.63
2019-05-13T20:48:32.050Z,1.73
2019-05-13T20:51:02.520Z,2.00
2019-05-13T20:53:33.027Z,1.70
2019-05-13T20:56:01.863Z,2.00
2019-05-13T20:58:31.903Z,1.93
2019-05-13T21:01:02.307Z,1.97
2019-05-13T21:03:31.554Z,3.23
2019-05-13T21:06:00.604Z,2.07
2019-05-13T21:08:31.909Z,2.00
2019-05-13T21:11:02.078Z,2.13
2019-05-13T21:13:31.797Z,2.03
2019-05-13T21:16:21.760Z,1.63
2019-05-13T21:18:50.038Z,2.07
2019-05-13T21:21:18.623Z,2.43
2019-05-13T21:23:47.096Z,1.97
2019-05-13T21:26:15.844Z,2.23
2019-05-13T21:28:44.541Z,2.63
2019-05-13T21:31:13.008Z,2.50
2019-05-13T21:33:41.678Z,2.50
2019-05-13T21:36:12.279Z,2.30
2019-05-13T21:38:40.893Z,2.20
2019-05-13T21:41:11.617Z,2.10
2019-05-13T21:43:41.372Z,2.20
2019-05-13T21:46:11.907Z,2.63
2019-05-13T21:48:41.631Z,2.40
2019-05-13T21:51:13.198Z,2.60
2019-05-13T21:53:41.370Z,2.27
2019-05-13T21:56:12.179Z,2.45
2019-05-13T21:58:41.621Z,2.50
2019-05-13T22:01:10.805Z,2.03
2019-05-13T22:03:39.286Z,2.70
2019-05-13T22:06:08.112Z,2.33
2019-05-13T22:08:36.642Z,2.23
2019-05-13T22:11:05.130Z,2.47
2019-05-13T22:13:33.615Z,1.90
2019-05-13T22:16:02.090Z,2.00
2019-05-13T22:18:31.454Z,2.10
2019-05-13T22:21:01.685Z,1.97
2019-05-13T22:23:32.064Z,2.33
2019-05-13T22:26:01.653Z,1.80
2019-05-13T22:28:31.351Z,1.83
2019-05-13T22:31:01.302Z,1.90
2019-05-13T22:33:32.175Z,1.87
2019-05-13T22:36:01.617Z,1.87
2019-05-13T22:38:32.279Z,1.70
2019-05-13T22:41:01.220Z,1.60
2019-05-13T22:43:32.118Z,1.33
2019-05-13T22:46:00.325Z,1.50
2019-05-13T22:48:31.530Z,1.50
2019-05-13T22:51:01.177Z,1.03
2019-05-13T22:53:31.599Z,1.53
2019-05-13T22:56:00.283Z,1.57
2019-05-13T22:58:28.742Z,1.23
2019-05-13T23:00:57.284Z,1.70
2019-05-13T23:03:32.344Z,1.10
2019-05-13T23:06:03.750Z,1.10
2019-05-13T23:08:32.596Z,1.47
2019-05-13T23:11:02.047Z,1.17
2019-05-13T23:13:31.381Z,1.20
2019-05-13T23:16:02.126Z,1.50
2019-05-13T23:18:31.610Z,1.30
2019-05-13T23:21:02.361Z,1.30
2019-05-13T23:23:30.961Z,1.47
2019-05-13T23:25:59.506Z,1.03
2019-05-13T23:28:27.973Z,1.27
2019-05-13T23:30:56.450Z,1.40
2019-05-13T23:33:25.311Z,1.60
2019-05-13T23:35:53.778Z,1.77
2019-05-13T23:38:22.252Z,1.70
2019-05-13T23:40:51.551Z,2.20
2019-05-13T23:43:21.684Z,2.00
2019-05-13T23:45:51.230Z,1.67
2019-05-13T23:48:21.653Z,2.17
2019-05-13T23:50:52.164Z,2.13
2019-05-13T23:53:21.813Z,1.37
2019-05-13T23:55:52.044Z,1.67
2019-05-13T23:58:21.696Z,1.70
